Terminal Aerodrome Forecast
Issued by NWS Hastings, NE

Home | Current Version | Previous Version | Text Only | Print | Product List | Glossary On
Versions: 1 2 3 4 5 6 7 8 9 10 11 12
000
FTUS43 KGID 221120
TAFGRI
TAF
KGRI 221120Z 2212/2312 18007KT P6SM SCT250
     FM221700 20013G21KT P6SM SCT250
     FM222300 22008KT P6SM SCT200
     FM230600 26007KT P6SM FEW250
     FM230800 30007KT P6SM FEW250=

USA.gov is the U.S. government's official web portal to all federal, state and local government web resources and services.